sensor_id;sensor_type;location;lat;lon;timestamp;temperature;humidity
34434;DHT22;34290;48.562;13.384;2023-10-31T04:54:23;10.20;99.90
34434;DHT22;34290;48.562;13.384;2023-10-31T04:56:51;10.30;99.90
34434;DHT22;34290;48.562;13.384;2023-10-31T05:01:48;10.20;99.90
34434;DHT22;34290;48.562;13.384;2023-10-31T05:04:16;10.20;99.90
34434;DHT22;34290;48.562;13.384;2023-10-31T05:06:43;10.20;99.90
34434;DHT22;34290;48.562;13.384;2023-10-31T05:21:34;10.20;99.90
34434;DHT22;34290;48.562;13.384;2023-10-31T05:24:01;10.20;99.90
34434;DHT22;34290;48.562;13.384;2023-10-31T05:26:29;10.10;99.90
34434;DHT22;34290;48.562;13.384;2023-10-31T05:28:56;10.10;99.90
34434;DHT22;34290;48.562;13.384;2023-10-31T05:31:25;10.10;99.90
34434;DHT22;34290;48.562;13.384;2023-10-31T05:33:52;10.10;99.90
34434;DHT22;34290;48.562;13.384;2023-10-31T05:36:19;10.10;99.90
34434;DHT22;34290;48.562;13.384;2023-10-31T05:38:46;10.10;99.90
34434;DHT22;34290;48.562;13.384;2023-10-31T05:41:14;10.00;99.90
34434;DHT22;34290;48.562;13.384;2023-10-31T05:43:41;10.10;99.90
34434;DHT22;34290;48.562;13.384;2023-10-31T05:46:08;10.10;99.90
34434;DHT22;34290;48.562;13.384;2023-10-31T05:48:38;10.00;99.90
34434;DHT22;34290;48.562;13.384;2023-10-31T05:51:11;10.10;99.90
34434;DHT22;34290;48.562;13.384;2023-10-31T05:53:40;10.00;99.90
34434;DHT22;34290;48.562;13.384;2023-10-31T05:56:08;10.10;99.90
34434;DHT22;34290;48.562;13.384;2023-10-31T05:58:36;10.10;99.90
34434;DHT22;34290;48.562;13.384;2023-10-31T06:01:03;10.00;99.90
34434;DHT22;34290;48.562;13.384;2023-10-31T06:03:34;10.10;99.90
34434;DHT22;34290;48.562;13.384;2023-10-31T06:06:03;10.00;99.90
34434;DHT22;34290;48.562;13.384;2023-10-31T06:08:30;10.00;99.90
34434;DHT22;34290;48.562;13.384;2023-10-31T06:10:57;10.00;99.90
34434;DHT22;34290;48.562;13.384;2023-10-31T06:13:25;10.00;99.90
34434;DHT22;34290;48.562;13.384;2023-10-31T06:15:53;10.00;99.90
34434;DHT22;34290;48.562;13.384;2023-10-31T06:18:20;10.00;99.90
34434;DHT22;34290;48.562;13.384;2023-10-31T06:20:47;10.00;99.90
34434;DHT22;34290;48.562;13.384;2023-10-31T06:23:16;10.00;99.90
34434;DHT22;34290;48.562;13.384;2023-10-31T06:25:43;10.10;99.90
34434;DHT22;34290;48.562;13.384;2023-10-31T06:28:10;10.10;99.90
34434;DHT22;34290;48.562;13.384;2023-10-31T06:30:37;10.10;99.90
34434;DHT22;34290;48.562;13.384;2023-10-31T06:33:04;10.10;99.90
34434;DHT22;34290;48.562;13.384;2023-10-31T06:35:33;10.20;99.90
34434;DHT22;34290;48.562;13.384;2023-10-31T06:38:00;10.10;99.90
34434;DHT22;34290;48.562;13.384;2023-10-31T06:40:29;10.20;99.90
34434;DHT22;34290;48.562;13.384;2023-10-31T06:42:56;10.20;99.90
34434;DHT22;34290;48.562;13.384;2023-10-31T06:45:23;10.20;99.90
34434;DHT22;34290;48.562;13.384;2023-10-31T06:47:50;10.20;99.90
34434;DHT22;34290;48.562;13.384;2023-10-31T06:50:17;10.20;99.90
34434;DHT22;34290;48.562;13.384;2023-10-31T06:52:43;10.20;99.90
34434;DHT22;34290;48.562;13.384;2023-10-31T06:55:10;10.20;99.90
34434;DHT22;34290;48.562;13.384;2023-10-31T06:57:39;10.20;99.90
34434;DHT22;34290;48.562;13.384;2023-10-31T07:00:07;8.10;99.90
34434;DHT22;34290;48.562;13.384;2023-10-31T07:02:35;10.30;99.90
34434;DHT22;34290;48.562;13.384;2023-10-31T07:05:02;10.20;99.90
34434;DHT22;34290;48.562;13.384;2023-10-31T07:07:30;10.20;99.90
34434;DHT22;34290;48.562;13.384;2023-10-31T07:09:57;10.40;99.90
34434;DHT22;34290;48.562;13.384;2023-10-31T07:12:24;10.40;99.90
34434;DHT22;34290;48.562;13.384;2023-10-31T07:14:52;10.30;99.90
34434;DHT22;34290;48.562;13.384;2023-10-31T07:17:19;10.30;99.90
34434;DHT22;34290;48.562;13.384;2023-10-31T08:28:43;10.90;99.90
34434;DHT22;34290;48.562;13.384;2023-10-31T08:31:10;10.80;99.90
34434;DHT22;34290;48.562;13.384;2023-10-31T08:33:37;10.70;99.90
34434;DHT22;34290;48.562;13.384;2023-10-31T08:36:05;10.60;99.90
34434;DHT22;34290;48.562;13.384;2023-10-31T08:38:34;10.60;99.90
34434;DHT22;34290;48.562;13.384;2023-10-31T08:41:03;10.60;99.90
34434;DHT22;34290;48.562;13.384;2023-10-31T08:43:30;10.60;99.90
34434;DHT22;34290;48.562;13.384;2023-10-31T08:45:57;10.60;99.90
34434;DHT22;34290;48.562;13.384;2023-10-31T08:48:24;10.60;99.90
34434;DHT22;34290;48.562;13.384;2023-10-31T08:50:51;10.70;99.90
34434;DHT22;34290;48.562;13.384;2023-10-31T08:53:18;10.60;99.90
34434;DHT22;34290;48.562;13.384;2023-10-31T08:55:45;10.60;99.90
34434;DHT22;34290;48.562;13.384;2023-10-31T08:58:14;10.70;99.90
34434;DHT22;34290;48.562;13.384;2023-10-31T09:00:43;10.80;99.90
34434;DHT22;34290;48.562;13.384;2023-10-31T09:03:10;10.80;99.90
34434;DHT22;34290;48.562;13.384;2023-10-31T09:05:37;10.80;99.90
34434;DHT22;34290;48.562;13.384;2023-10-31T09:08:05;10.90;99.90
34434;DHT22;34290;48.562;13.384;2023-10-31T09:10:32;10.90;99.90
34434;DHT22;34290;48.562;13.384;2023-10-31T09:12:59;10.90;99.90
34434;DHT22;34290;48.562;13.384;2023-10-31T09:15:27;10.90;99.90
34434;DHT22;34290;48.562;13.384;2023-10-31T09:17:54;10.90;99.90
34434;DHT22;34290;48.562;13.384;2023-10-31T09:20:21;10.90;99.90
34434;DHT22;34290;48.562;13.384;2023-10-31T09:22:48;10.90;99.90
34434;DHT22;34290;48.562;13.384;2023-10-31T09:25:15;10.90;99.90
34434;DHT22;34290;48.562;13.384;2023-10-31T09:27:42;10.60;99.90
34434;DHT22;34290;48.562;13.384;2023-10-31T09:30:10;10.80;99.90
34434;DHT22;34290;48.562;13.384;2023-10-31T09:32:38;10.80;99.90
34434;DHT22;34290;48.562;13.384;2023-10-31T09:35:05;10.70;99.90
34434;DHT22;34290;48.562;13.384;2023-10-31T09:37:33;10.80;99.90
34434;DHT22;34290;48.562;13.384;2023-10-31T09:40:00;10.90;99.90
34434;DHT22;34290;48.562;13.384;2023-10-31T09:42:27;10.80;99.90
34434;DHT22;34290;48.562;13.384;2023-10-31T09:44:54;10.80;99.90
34434;DHT22;34290;48.562;13.384;2023-10-31T09:47:22;10.80;99.90
34434;DHT22;34290;48.562;13.384;2023-10-31T09:49:51;10.80;99.90
34434;DHT22;34290;48.562;13.384;2023-10-31T09:52:18;10.90;99.90
34434;DHT22;34290;48.562;13.384;2023-10-31T09:54:47;11.00;99.90
34434;DHT22;34290;48.562;13.384;2023-10-31T09:57:15;11.00;99.90
34434;DHT22;34290;48.562;13.384;2023-10-31T09:59:43;10.90;99.90
34434;DHT22;34290;48.562;13.384;2023-10-31T10:02:11;10.80;99.90
34434;DHT22;34290;48.562;13.384;2023-10-31T10:04:38;10.80;99.90
34434;DHT22;34290;48.562;13.384;2023-10-31T10:07:06;10.80;99.90
34434;DHT22;34290;48.562;13.384;2023-10-31T10:09:33;10.80;99.90
34434;DHT22;34290;48.562;13.384;2023-10-31T10:12:01;10.80;99.90
34434;DHT22;34290;48.562;13.384;2023-10-31T10:14:28;10.80;99.90
34434;DHT22;34290;48.562;13.384;2023-10-31T10:16:57;10.80;99.90
34434;DHT22;34290;48.562;13.384;2023-10-31T10:24:21;10.80;99.90
34434;DHT22;34290;48.562;13.384;2023-10-31T10:26:48;10.80;99.90
34434;DHT22;34290;48.562;13.384;2023-10-31T10:29:16;10.70;99.90
34434;DHT22;34290;48.562;13.384;2023-10-31T10:31:43;10.60;99.90
34434;DHT22;34290;48.562;13.384;2023-10-31T10:34:11;10.60;99.90
34434;DHT22;34290;48.562;13.384;2023-10-31T10:36:40;10.60;99.90
34434;DHT22;34290;48.562;13.384;2023-10-31T10:39:08;10.60;99.90
34434;DHT22;34290;48.562;13.384;2023-10-31T10:41:39;10.60;99.90
34434;DHT22;34290;48.562;13.384;2023-10-31T10:44:09;10.60;99.90
34434;DHT22;34290;48.562;13.384;2023-10-31T10:46:40;10.60;99.90
34434;DHT22;34290;48.562;13.384;2023-10-31T10:49:07;10.60;99.90
34434;DHT22;34290;48.562;13.384;2023-10-31T10:51:47;10.60;99.90
34434;DHT22;34290;48.562;13.384;2023-10-31T10:54:22;10.50;99.90
34434;DHT22;34290;48.562;13.384;2023-10-31T10:56:54;10.60;99.90
34434;DHT22;34290;48.562;13.384;2023-10-31T10:59:29;10.40;99.90
34434;DHT22;34290;48.562;13.384;2023-10-31T11:01:58;10.40;99.90
34434;DHT22;34290;48.562;13.384;2023-10-31T11:04:27;10.40;99.90
34434;DHT22;34290;48.562;13.384;2023-10-31T11:06:54;10.40;99.90
34434;DHT22;34290;48.562;13.384;2023-10-31T11:09:23;10.40;99.90
34434;DHT22;34290;48.562;13.384;2023-10-31T11:11:52;10.30;99.90
34434;DHT22;34290;48.562;13.384;2023-10-31T11:14:20;10.40;99.90
34434;DHT22;34290;48.562;13.384;2023-10-31T11:16:52;10.40;99.90
34434;DHT22;34290;48.562;13.384;2023-10-31T13:11:29;10.90;99.90
34434;DHT22;34290;48.562;13.384;2023-10-31T13:13:56;10.80;99.90
34434;DHT22;34290;48.562;13.384;2023-10-31T13:16:24;10.70;99.90
34434;DHT22;34290;48.562;13.384;2023-10-31T13:18:52;10.60;99.90
34434;DHT22;34290;48.562;13.384;2023-10-31T13:21:20;10.40;99.90
34434;DHT22;34290;48.562;13.384;2023-10-31T13:23:48;10.60;99.90
34434;DHT22;34290;48.562;13.384;2023-10-31T13:26:15;10.60;99.90
34434;DHT22;34290;48.562;13.384;2023-10-31T13:28:42;10.60;99.90
34434;DHT22;34290;48.562;13.384;2023-10-31T13:31:09;10.60;99.90
34434;DHT22;34290;48.562;13.384;2023-10-31T13:33:37;10.60;99.90
34434;DHT22;34290;48.562;13.384;2023-10-31T13:36:05;10.60;99.90
34434;DHT22;34290;48.562;13.384;2023-10-31T13:38:32;10.60;99.90
34434;DHT22;34290;48.562;13.384;2023-10-31T13:41:00;10.70;99.90
34434;DHT22;34290;48.562;13.384;2023-10-31T13:43:27;10.70;99.90
34434;DHT22;34290;48.562;13.384;2023-10-31T13:45:54;10.60;99.90
34434;DHT22;34290;48.562;13.384;2023-10-31T13:48:21;10.70;99.90
34434;DHT22;34290;48.562;13.384;2023-10-31T13:50:48;10.70;99.90
34434;DHT22;34290;48.562;13.384;2023-10-31T13:53:15;10.70;99.90
34434;DHT22;34290;48.562;13.384;2023-10-31T13:55:43;10.70;99.90
34434;DHT22;34290;48.562;13.384;2023-10-31T13:58:11;10.70;99.90
34434;DHT22;34290;48.562;13.384;2023-10-31T14:00:38;10.70;99.90
34434;DHT22;34290;48.562;13.384;2023-10-31T14:03:05;10.70;99.90
34434;DHT22;34290;48.562;13.384;2023-10-31T14:05:32;10.70;99.90
34434;DHT22;34290;48.562;13.384;2023-10-31T14:07:59;10.80;99.90
34434;DHT22;34290;48.562;13.384;2023-10-31T14:10:26;10.70;99.90
34434;DHT22;34290;48.562;13.384;2023-10-31T14:12:53;10.70;99.90
34434;DHT22;34290;48.562;13.384;2023-10-31T14:15:22;10.70;99.90
34434;DHT22;34290;48.562;13.384;2023-10-31T14:17:50;10.70;99.90
34434;DHT22;34290;48.562;13.384;2023-10-31T14:20:17;10.60;99.90
34434;DHT22;34290;48.562;13.384;2023-10-31T14:22:48;10.60;99.90
34434;DHT22;34290;48.562;13.384;2023-10-31T14:25:15;10.60;99.90
34434;DHT22;34290;48.562;13.384;2023-10-31T14:27:42;10.60;99.90
34434;DHT22;34290;48.562;13.384;2023-10-31T14:30:10;10.50;99.90
34434;DHT22;34290;48.562;13.384;2023-10-31T14:32:39;10.50;99.90
34434;DHT22;34290;48.562;13.384;2023-10-31T14:35:07;10.50;99.90
34434;DHT22;34290;48.562;13.384;2023-10-31T14:37:34;10.50;99.90
34434;DHT22;34290;48.562;13.384;2023-10-31T14:40:02;10.50;99.90
34434;DHT22;34290;48.562;13.384;2023-10-31T14:42:30;10.50;99.90
34434;DHT22;34290;48.562;13.384;2023-10-31T14:44:57;10.40;99.90
34434;DHT22;34290;48.562;13.384;2023-10-31T14:47:25;10.50;99.90
34434;DHT22;34290;48.562;13.384;2023-10-31T14:49:53;10.40;99.90
34434;DHT22;34290;48.562;13.384;2023-10-31T14:52:20;10.40;99.90
34434;DHT22;34290;48.562;13.384;2023-10-31T14:54:47;10.40;99.90
34434;DHT22;34290;48.562;13.384;2023-10-31T14:57:14;10.40;99.90
34434;DHT22;34290;48.562;13.384;2023-10-31T14:59:41;10.40;99.90
34434;DHT22;34290;48.562;13.384;2023-10-31T15:02:08;10.50;99.90
34434;DHT22;34290;48.562;13.384;2023-10-31T15:04:35;10.40;99.90
34434;DHT22;34290;48.562;13.384;2023-10-31T15:07:04;10.40;99.90
34434;DHT22;34290;48.562;13.384;2023-10-31T15:09:31;10.40;99.90
34434;DHT22;34290;48.562;13.384;2023-10-31T15:11:58;10.40;99.90
34434;DHT22;34290;48.562;13.384;2023-10-31T15:14:25;10.40;99.90
34434;DHT22;34290;48.562;13.384;2023-10-31T15:16:52;10.40;99.90
34434;DHT22;34290;48.562;13.384;2023-10-31T15:19:19;10.30;99.90
34434;DHT22;34290;48.562;13.384;2023-10-31T15:21:46;10.30;99.90
34434;DHT22;34290;48.562;13.384;2023-10-31T15:24:15;10.30;99.90
34434;DHT22;34290;48.562;13.384;2023-10-31T15:26:42;10.30;99.90
34434;DHT22;34290;48.562;13.384;2023-10-31T15:29:09;10.30;99.90
34434;DHT22;34290;48.562;13.384;2023-10-31T15:31:42;10.20;99.90
34434;DHT22;34290;48.562;13.384;2023-10-31T15:34:09;10.20;99.90
34434;DHT22;34290;48.562;13.384;2023-10-31T15:36:36;10.10;99.90
34434;DHT22;34290;48.562;13.384;2023-10-31T15:39:03;10.10;99.90
34434;DHT22;34290;48.562;13.384;2023-10-31T15:41:31;10.00;99.90
34434;DHT22;34290;48.562;13.384;2023-10-31T15:43:58;10.00;99.90
34434;DHT22;34290;48.562;13.384;2023-10-31T15:46:25;9.80;99.90
34434;DHT22;34290;48.562;13.384;2023-10-31T15:48:52;9.80;99.90
34434;DHT22;34290;48.562;13.384;2023-10-31T15:51:19;9.70;99.90
34434;DHT22;34290;48.562;13.384;2023-10-31T15:53:46;9.60;99.90
34434;DHT22;34290;48.562;13.384;2023-10-31T15:56:13;9.70;99.90
34434;DHT22;34290;48.562;13.384;2023-10-31T15:58:42;9.70;99.90
34434;DHT22;34290;48.562;13.384;2023-10-31T16:01:09;9.70;99.90
34434;DHT22;34290;48.562;13.384;2023-10-31T16:03:36;9.60;99.90
34434;DHT22;34290;48.562;13.384;2023-10-31T16:06:03;9.60;99.90
34434;DHT22;34290;48.562;13.384;2023-10-31T16:08:30;9.50;99.90
34434;DHT22;34290;48.562;13.384;2023-10-31T16:10:57;9.50;99.90
34434;DHT22;34290;48.562;13.384;2023-10-31T16:13:24;9.50;99.90
34434;DHT22;34290;48.562;13.384;2023-10-31T16:15:53;9.50;99.90
34434;DHT22;34290;48.562;13.384;2023-10-31T16:18:20;9.40;99.90
34434;DHT22;34290;48.562;13.384;2023-10-31T16:20:47;9.40;99.90
34434;DHT22;34290;48.562;13.384;2023-10-31T16:23:15;9.40;99.90
34434;DHT22;34290;48.562;13.384;2023-10-31T16:25:44;9.40;99.90
34434;DHT22;34290;48.562;13.384;2023-10-31T16:28:11;9.40;99.90
34434;DHT22;34290;48.562;13.384;2023-10-31T16:30:38;9.40;99.90
34434;DHT22;34290;48.562;13.384;2023-10-31T16:33:07;9.30;99.90
34434;DHT22;34290;48.562;13.384;2023-10-31T16:35:34;9.30;99.90
34434;DHT22;34290;48.562;13.384;2023-10-31T16:38:01;9.30;99.90
34434;DHT22;34290;48.562;13.384;2023-10-31T16:40:28;9.30;99.90
34434;DHT22;34290;48.562;13.384;2023-10-31T16:42:55;9.30;99.90
34434;DHT22;34290;48.562;13.384;2023-10-31T16:45:22;9.30;99.90
34434;DHT22;34290;48.562;13.384;2023-10-31T16:47:49;9.30;99.90
34434;DHT22;34290;48.562;13.384;2023-10-31T16:50:17;9.40;99.90
34434;DHT22;34290;48.562;13.384;2023-10-31T16:52:44;9.40;99.90
34434;DHT22;34290;48.562;13.384;2023-10-31T16:55:11;9.40;99.90
34434;DHT22;34290;48.562;13.384;2023-10-31T16:57:38;9.40;99.90
34434;DHT22;34290;48.562;13.384;2023-10-31T17:00:06;9.50;99.90
34434;DHT22;34290;48.562;13.384;2023-10-31T17:02:34;9.40;99.90
34434;DHT22;34290;48.562;13.384;2023-10-31T17:05:01;9.50;99.90
34434;DHT22;34290;48.562;13.384;2023-10-31T17:07:30;9.40;99.90
34434;DHT22;34290;48.562;13.384;2023-10-31T17:09:57;9.50;99.90
34434;DHT22;34290;48.562;13.384;2023-10-31T17:12:24;9.40;99.90
34434;DHT22;34290;48.562;13.384;2023-10-31T17:14:51;9.50;99.90
34434;DHT22;34290;48.562;13.384;2023-10-31T17:17:18;9.40;99.90
34434;DHT22;34290;48.562;13.384;2023-10-31T17:19:45;9.40;99.90
34434;DHT22;34290;48.562;13.384;2023-10-31T17:22:12;9.40;99.90
34434;DHT22;34290;48.562;13.384;2023-10-31T17:24:41;9.30;99.90
34434;DHT22;34290;48.562;13.384;2023-10-31T17:27:08;9.30;99.90
34434;DHT22;34290;48.562;13.384;2023-10-31T17:29:35;9.40;99.90
34434;DHT22;34290;48.562;13.384;2023-10-31T17:32:02;9.40;99.90
34434;DHT22;34290;48.562;13.384;2023-10-31T17:34:29;9.40;99.90
34434;DHT22;34290;48.562;13.384;2023-10-31T17:36:56;9.30;99.90
34434;DHT22;34290;48.562;13.384;2023-10-31T17:39:24;9.30;99.90
34434;DHT22;34290;48.562;13.384;2023-10-31T17:41:53;9.40;99.90
34434;DHT22;34290;48.562;13.384;2023-10-31T17:44:20;9.40;99.90
34434;DHT22;34290;48.562;13.384;2023-10-31T17:46:48;9.40;99.90
34434;DHT22;34290;48.562;13.384;2023-10-31T17:49:15;9.40;99.90
34434;DHT22;34290;48.562;13.384;2023-10-31T17:51:42;9.40;99.90
34434;DHT22;34290;48.562;13.384;2023-10-31T17:54:09;9.40;99.90
34434;DHT22;34290;48.562;13.384;2023-10-31T17:56:36;9.40;99.90
34434;DHT22;34290;48.562;13.384;2023-10-31T17:59:06;9.40;99.90
34434;DHT22;34290;48.562;13.384;2023-10-31T18:01:33;9.40;99.90
34434;DHT22;34290;48.562;13.384;2023-10-31T18:04:00;9.50;99.90
34434;DHT22;34290;48.562;13.384;2023-10-31T18:06:27;9.50;99.90
34434;DHT22;34290;48.562;13.384;2023-10-31T18:08:54;9.50;99.90
34434;DHT22;34290;48.562;13.384;2023-10-31T18:11:21;9.60;99.90
34434;DHT22;34290;48.562;13.384;2023-10-31T18:13:48;9.50;99.90
34434;DHT22;34290;48.562;13.384;2023-10-31T18:16:17;9.50;99.90
34434;DHT22;34290;48.562;13.384;2023-10-31T18:18:45;9.50;99.90
34434;DHT22;34290;48.562;13.384;2023-10-31T18:21:13;9.60;99.90
34434;DHT22;34290;48.562;13.384;2023-10-31T18:23:40;9.60;99.90
34434;DHT22;34290;48.562;13.384;2023-10-31T18:26:07;9.60;99.90
34434;DHT22;34290;48.562;13.384;2023-10-31T18:28:34;9.60;99.90
34434;DHT22;34290;48.562;13.384;2023-10-31T18:31:02;9.60;99.90
34434;DHT22;34290;48.562;13.384;2023-10-31T18:33:31;9.70;99.90
34434;DHT22;34290;48.562;13.384;2023-10-31T18:36:00;9.70;99.90
34434;DHT22;34290;48.562;13.384;2023-10-31T18:38:26;9.80;99.90
34434;DHT22;34290;48.562;13.384;2023-10-31T18:40:53;9.90;99.90
34434;DHT22;34290;48.562;13.384;2023-10-31T18:43:20;9.90;99.90
34434;DHT22;34290;48.562;13.384;2023-10-31T18:45:47;9.90;99.90
34434;DHT22;34290;48.562;13.384;2023-10-31T18:48:15;9.90;99.90
34434;DHT22;34290;48.562;13.384;2023-10-31T18:50:43;9.90;99.90
34434;DHT22;34290;48.562;13.384;2023-10-31T18:53:10;9.90;99.90
34434;DHT22;34290;48.562;13.384;2023-10-31T18:55:38;9.40;99.90
34434;DHT22;34290;48.562;13.384;2023-10-31T19:00:32;9.80;99.90
34434;DHT22;34290;48.562;13.384;2023-10-31T19:02:59;11.30;99.90
34434;DHT22;34290;48.562;13.384;2023-10-31T19:05:27;9.80;99.90
34434;DHT22;34290;48.562;13.384;2023-10-31T19:07:55;9.80;99.90
34434;DHT22;34290;48.562;13.384;2023-10-31T19:10:22;9.80;99.90
34434;DHT22;34290;48.562;13.384;2023-10-31T19:12:50;9.90;99.90
34434;DHT22;34290;48.562;13.384;2023-10-31T19:15:17;9.90;99.90
34434;DHT22;34290;48.562;13.384;2023-10-31T19:20:11;9.90;99.90
34434;DHT22;34290;48.562;13.384;2023-10-31T19:22:38;9.80;99.90
34434;DHT22;34290;48.562;13.384;2023-10-31T19:25:07;9.80;99.90
34434;DHT22;34290;48.562;13.384;2023-10-31T19:27:34;9.80;99.90
34434;DHT22;34290;48.562;13.384;2023-10-31T19:30:01;9.80;99.90
34434;DHT22;34290;48.562;13.384;2023-10-31T19:32:28;9.70;99.90
34434;DHT22;34290;48.562;13.384;2023-10-31T19:34:56;9.70;99.90
34434;DHT22;34290;48.562;13.384;2023-10-31T19:37:23;9.80;99.90
34434;DHT22;34290;48.562;13.384;2023-10-31T19:39:49;9.80;99.90
34434;DHT22;34290;48.562;13.384;2023-10-31T19:42:18;9.80;99.90
34434;DHT22;34290;48.562;13.384;2023-10-31T19:44:45;9.80;99.90
34434;DHT22;34290;48.562;13.384;2023-10-31T19:47:12;9.80;99.90
34434;DHT22;34290;48.562;13.384;2023-10-31T19:49:39;9.90;99.90
34434;DHT22;34290;48.562;13.384;2023-10-31T19:52:06;9.90;99.90
34434;DHT22;34290;48.562;13.384;2023-10-31T19:54:33;9.90;99.90
34434;DHT22;34290;48.562;13.384;2023-10-31T19:57:00;9.90;99.90
34434;DHT22;34290;48.562;13.384;2023-10-31T19:59:29;10.00;99.90
34434;DHT22;34290;48.562;13.384;2023-10-31T20:01:56;10.00;99.90
34434;DHT22;34290;48.562;13.384;2023-10-31T20:04:23;10.00;99.90
34434;DHT22;34290;48.562;13.384;2023-10-31T20:06:50;10.00;99.90
34434;DHT22;34290;48.562;13.384;2023-10-31T20:09:16;9.90;99.90
34434;DHT22;34290;48.562;13.384;2023-10-31T20:11:43;10.00;99.90
34434;DHT22;34290;48.562;13.384;2023-10-31T20:14:10;10.00;99.90
34434;DHT22;34290;48.562;13.384;2023-10-31T20:16:40;10.00;99.90
34434;DHT22;34290;48.562;13.384;2023-10-31T20:19:06;10.00;99.90
34434;DHT22;34290;48.562;13.384;2023-10-31T20:21:36;10.00;99.90
34434;DHT22;34290;48.562;13.384;2023-10-31T20:24:06;10.00;99.90
34434;DHT22;34290;48.562;13.384;2023-10-31T20:26:34;10.00;99.90
34434;DHT22;34290;48.562;13.384;2023-10-31T20:29:01;10.00;99.90
34434;DHT22;34290;48.562;13.384;2023-10-31T20:31:28;10.00;99.90
34434;DHT22;34290;48.562;13.384;2023-10-31T20:33:57;10.00;99.90
34434;DHT22;34290;48.562;13.384;2023-10-31T20:36:24;10.00;99.90
34434;DHT22;34290;48.562;13.384;2023-10-31T20:38:51;9.80;99.90
34434;DHT22;34290;48.562;13.384;2023-10-31T20:41:18;10.10;99.90
34434;DHT22;34290;48.562;13.384;2023-10-31T20:43:46;10.10;99.90
34434;DHT22;34290;48.562;13.384;2023-10-31T20:46:13;10.10;99.90
34434;DHT22;34290;48.562;13.384;2023-10-31T20:48:41;10.10;99.90
34434;DHT22;34290;48.562;13.384;2023-10-31T20:51:09;10.10;99.90
34434;DHT22;34290;48.562;13.384;2023-10-31T20:53:36;10.10;99.90
34434;DHT22;34290;48.562;13.384;2023-10-31T20:56:06;10.20;99.90
34434;DHT22;34290;48.562;13.384;2023-10-31T20:58:33;10.20;99.90
